createdAt,value
2022-08-25T00:00:23.985Z,19.87
2022-08-25T00:03:09.436Z,19.88
2022-08-25T00:05:39.049Z,19.90
2022-08-25T00:08:22.095Z,19.92
2022-08-25T00:10:53.977Z,19.92
2022-08-25T00:13:33.747Z,19.94
2022-08-25T00:16:19.163Z,19.94
2022-08-25T00:19:09.533Z,19.95
2022-08-25T00:21:42.553Z,19.95
2022-08-25T00:24:14.172Z,19.96
2022-08-25T00:26:49.220Z,19.98
2022-08-25T00:29:20.134Z,19.98
2022-08-25T00:31:49.994Z,19.98
2022-08-25T00:34:37.290Z,19.98
2022-08-25T00:37:10.111Z,19.96
2022-08-25T00:39:41.012Z,19.97
2022-08-25T00:42:11.751Z,19.97
2022-08-25T00:44:46.689Z,19.98
2022-08-25T00:47:17.019Z,19.99
2022-08-25T00:49:54.898Z,19.99
2022-08-25T00:52:32.668Z,20.01
2022-08-25T00:55:10.827Z,20.01
2022-08-25T00:57:50.874Z,20.02
2022-08-25T01:00:40.247Z,20.01
2022-08-25T01:03:09.839Z,20.00
2022-08-25T01:05:40.335Z,20.01
2022-08-25T01:08:11.130Z,20.01
2022-08-25T01:10:50.503Z,20.03
2022-08-25T01:13:39.659Z,20.05
2022-08-25T01:16:09.700Z,20.06
2022-08-25T01:18:50.416Z,20.07
2022-08-25T01:21:23.189Z,20.08
2022-08-25T01:23:53.837Z,20.09
2022-08-25T01:26:30.541Z,20.09
2022-08-25T01:29:25.109Z,20.11
2022-08-25T01:32:05.231Z,20.14
2022-08-25T01:34:38.067Z,20.14
2022-08-25T01:37:08.658Z,20.15
2022-08-25T01:39:44.327Z,20.15
2022-08-25T01:42:24.253Z,20.16
2022-08-25T01:45:08.316Z,20.17
2022-08-25T01:47:39.234Z,20.19
2022-08-25T01:50:09.052Z,20.19
2022-08-25T01:52:56.940Z,20.17
2022-08-25T01:55:26.928Z,20.13
2022-08-25T01:57:59.360Z,20.08
2022-08-25T02:00:29.049Z,20.06
2022-08-25T02:02:59.273Z,20.06
2022-08-25T02:05:30.205Z,20.08
2022-08-25T02:08:02.658Z,20.09
2022-08-25T02:10:34.472Z,20.09
2022-08-25T02:13:06.270Z,20.09
2022-08-25T02:15:55.205Z,20.13
2022-08-25T02:18:25.142Z,20.13
2022-08-25T02:21:08.138Z,20.11
2022-08-25T02:23:38.572Z,20.09
2022-08-25T02:26:08.899Z,20.07
2022-08-25T02:28:38.831Z,20.03
2022-08-25T02:31:08.591Z,19.97
2022-08-25T02:33:38.033Z,19.92
2022-08-25T02:36:07.868Z,19.89
2022-08-25T02:38:38.853Z,19.88
2022-08-25T02:41:30.935Z,19.92
2022-08-25T02:44:03.314Z,19.94
2022-08-25T02:49:42.453Z,19.93
2022-08-25T02:52:26.046Z,19.89
2022-08-25T02:54:56.330Z,19.86
2022-08-25T02:57:38.834Z,19.84
2022-08-25T03:00:12.860Z,19.84
2022-08-25T03:02:43.072Z,19.85
2022-08-25T03:05:14.321Z,19.86
2022-08-25T03:07:44.287Z,19.87
2022-08-25T03:10:17.983Z,19.88
2022-08-25T03:12:48.392Z,19.87
2022-08-25T03:15:19.031Z,19.88
2022-08-25T03:17:52.480Z,19.92
2022-08-25T03:20:24.888Z,19.93
2022-08-25T03:22:54.366Z,19.94
2022-08-25T03:25:42.114Z,19.93
2022-08-25T03:28:11.940Z,19.93
2022-08-25T03:30:44.636Z,19.92
2022-08-25T03:33:14.468Z,19.89
2022-08-25T03:35:45.142Z,19.86
2022-08-25T03:38:17.829Z,19.80
2022-08-25T03:40:50.511Z,19.69
2022-08-25T03:43:20.910Z,19.55
2022-08-25T03:45:52.234Z,19.46
2022-08-25T03:48:21.457Z,19.39
2022-08-25T03:50:52.319Z,19.34
2022-08-25T03:53:22.534Z,19.25
2022-08-25T03:55:51.773Z,19.22
2022-08-25T03:58:21.335Z,19.22
2022-08-25T04:00:50.457Z,19.23
2022-08-25T04:03:23.799Z,19.20
2022-08-25T04:06:01.138Z,19.15
2022-08-25T04:08:29.959Z,19.14
2022-08-25T04:11:00.865Z,19.14
2022-08-25T04:13:30.688Z,19.12
2022-08-25T04:15:59.632Z,19.10
2022-08-25T04:18:31.730Z,19.09
2022-08-25T04:21:06.956Z,19.06
2022-08-25T04:23:42.177Z,19.05
2022-08-25T04:26:14.514Z,19.00
2022-08-25T04:29:00.998Z,18.93
2022-08-25T04:31:31.813Z,18.93
2022-08-25T04:34:28.369Z,18.89
2022-08-25T04:36:56.195Z,18.86
2022-08-25T04:39:25.834Z,18.86
2022-08-25T04:41:55.959Z,18.84
2022-08-25T04:44:38.388Z,18.82
2022-08-25T04:47:14.167Z,18.82
2022-08-25T04:49:48.833Z,18.83
2022-08-25T04:52:21.414Z,18.83
2022-08-25T04:54:50.317Z,18.85
2022-08-25T04:57:19.215Z,18.86
2022-08-25T04:59:48.206Z,18.88
2022-08-25T05:02:17.501Z,18.91
2022-08-25T05:04:53.654Z,18.94
2022-08-25T05:07:25.657Z,18.96
2022-08-25T05:09:54.806Z,18.97
2022-08-25T05:12:24.385Z,18.99
2022-08-25T05:14:54.802Z,19.02
2022-08-25T05:17:23.921Z,19.07
2022-08-25T05:19:53.672Z,19.14
2022-08-25T05:22:23.403Z,19.19
2022-08-25T05:24:53.340Z,19.21
2022-08-25T05:27:23.030Z,19.20
2022-08-25T05:29:53.966Z,19.17
2022-08-25T05:32:23.866Z,19.16
2022-08-25T05:34:54.953Z,19.15
2022-08-25T05:37:28.630Z,19.15
2022-08-25T05:39:59.397Z,19.13
2022-08-25T05:42:29.386Z,19.10
2022-08-25T05:44:59.444Z,19.09
2022-08-25T05:47:29.286Z,19.08
2022-08-25T05:50:01.677Z,19.07
2022-08-25T05:52:30.974Z,19.06
2022-08-25T05:55:00.591Z,19.08
2022-08-25T05:57:30.411Z,19.09
2022-08-25T06:00:02.187Z,19.10
2022-08-25T06:02:44.713Z,19.11
2022-08-25T06:05:19.254Z,19.14
2022-08-25T06:07:52.084Z,19.16
2022-08-25T06:10:22.741Z,19.17
2022-08-25T06:12:59.236Z,19.17
2022-08-25T06:15:36.177Z,19.17
2022-08-25T06:18:06.674Z,19.17
2022-08-25T06:20:39.495Z,19.19
2022-08-25T06:23:14.047Z,19.24
2022-08-25T06:25:50.607Z,19.26
2022-08-25T06:28:24.034Z,19.30
2022-08-25T06:31:02.162Z,19.36
2022-08-25T06:33:32.142Z,19.41
2022-08-25T06:36:01.638Z,19.45
2022-08-25T06:38:30.799Z,19.47
2022-08-25T06:41:03.780Z,19.50
2022-08-25T06:43:35.779Z,19.52
2022-08-25T06:46:18.231Z,19.53
2022-08-25T06:48:47.864Z,19.49
2022-08-25T06:51:20.220Z,19.49
2022-08-25T06:53:50.975Z,19.50
2022-08-25T06:56:21.965Z,19.51
2022-08-25T06:59:07.453Z,19.53
2022-08-25T07:01:37.783Z,19.51
2022-08-25T07:04:12.840Z,19.51
2022-08-25T07:06:43.871Z,19.54
2022-08-25T07:09:14.807Z,19.55
2022-08-25T07:11:46.265Z,19.56
2022-08-25T07:14:18.813Z,19.55
2022-08-25T07:16:50.310Z,19.56
2022-08-25T07:19:21.269Z,19.57
2022-08-25T07:21:53.336Z,19.54
2022-08-25T07:24:23.987Z,19.54
2022-08-25T07:26:53.932Z,19.55
2022-08-25T07:29:32.635Z,19.59
2022-08-25T07:32:05.428Z,19.64
2022-08-25T07:34:53.584Z,19.67
2022-08-25T07:37:47.552Z,19.71
2022-08-25T07:40:18.323Z,19.75
2022-08-25T07:42:52.080Z,19.77
2022-08-25T07:45:30.409Z,19.82
2022-08-25T07:48:13.325Z,19.86
2022-08-25T07:50:47.937Z,19.91
2022-08-25T07:53:17.860Z,19.93
2022-08-25T07:55:47.928Z,19.96
2022-08-25T07:58:19.055Z,19.99
2022-08-25T08:00:50.728Z,20.04
2022-08-25T08:03:35.504Z,20.08
2022-08-25T08:06:13.814Z,20.12
2022-08-25T08:08:59.027Z,20.16
2022-08-25T08:11:51.446Z,20.15
2022-08-25T08:14:24.218Z,20.18
2022-08-25T08:16:54.728Z,20.25
2022-08-25T08:19:24.250Z,20.28
2022-08-25T08:21:56.418Z,20.35
2022-08-25T08:24:44.335Z,20.42
2022-08-25T08:27:18.508Z,20.50
2022-08-25T08:29:48.966Z,20.54
2022-08-25T08:32:18.881Z,20.58
2022-08-25T08:34:51.190Z,20.61
2022-08-25T08:37:23.352Z,20.67
2022-08-25T08:39:53.400Z,20.73
2022-08-25T08:42:47.277Z,20.81
2022-08-25T08:45:40.541Z,20.93
2022-08-25T08:48:19.449Z,21.02
2022-08-25T08:51:22.978Z,21.05
2022-08-25T08:53:57.548Z,21.16
2022-08-25T08:56:52.832Z,21.26
2022-08-25T08:59:48.746Z,21.40
2022-08-25T09:02:51.375Z,21.53
2022-08-25T09:05:26.945Z,21.71
2022-08-25T09:08:14.034Z,21.89
2022-08-25T09:11:10.298Z,22.05
2022-08-25T09:14:11.669Z,22.18
2022-08-25T09:16:56.401Z,22.31
2022-08-25T09:19:50.744Z,22.43
2022-08-25T09:22:46.736Z,22.57
2022-08-25T09:25:29.560Z,22.70
2022-08-25T09:28:25.265Z,22.82
2022-08-25T09:31:21.033Z,22.90
2022-08-25T09:33:57.495Z,23.01
2022-08-25T09:36:28.177Z,23.16
2022-08-25T09:38:58.585Z,23.27
2022-08-25T09:41:51.260Z,23.36
2022-08-25T09:44:26.058Z,23.48
2022-08-25T09:47:02.474Z,23.57
2022-08-25T09:50:04.442Z,23.68
2022-08-25T09:52:41.380Z,23.80
2022-08-25T09:55:32.779Z,23.81
2022-08-25T09:58:17.771Z,23.89
2022-08-25T10:01:17.172Z,23.98
2022-08-25T10:03:58.343Z,24.04
2022-08-25T10:06:47.490Z,24.04
2022-08-25T10:09:40.834Z,24.10
2022-08-25T10:12:35.756Z,24.14
2022-08-25T10:15:38.767Z,24.21
2022-08-25T10:18:26.420Z,24.26
2022-08-25T10:21:36.186Z,24.31
2022-08-25T10:24:18.611Z,24.33
2022-08-25T10:27:28.606Z,24.42
2022-08-25T10:30:19.326Z,24.57
2022-08-25T10:32:58.068Z,24.62
2022-08-25T10:35:35.493Z,24.68
2022-08-25T10:38:11.885Z,24.73
2022-08-25T10:40:50.508Z,24.79
2022-08-25T10:43:47.769Z,24.88
2022-08-25T10:46:31.686Z,24.99
2022-08-25T10:49:19.744Z,25.09
2022-08-25T10:52:00.949Z,25.20
2022-08-25T10:54:35.360Z,25.37
2022-08-25T10:57:41.984Z,25.46
2022-08-25T11:00:16.804Z,25.52
2022-08-25T11:03:05.248Z,25.63
2022-08-25T11:06:35.664Z,25.71
2022-08-25T11:09:09.967Z,25.71
2022-08-25T11:12:19.466Z,25.73
2022-08-25T11:14:52.635Z,25.78
2022-08-25T11:17:38.648Z,25.84
2022-08-25T11:20:26.483Z,25.80
2022-08-25T11:23:21.006Z,25.76
2022-08-25T11:26:00.265Z,25.82
2022-08-25T11:28:43.746Z,25.91
2022-08-25T11:31:16.301Z,26.04
2022-08-25T11:33:46.544Z,26.13
2022-08-25T11:36:37.576Z,26.19
2022-08-25T11:39:34.595Z,26.26
2022-08-25T11:42:06.540Z,26.31
2022-08-25T11:44:56.248Z,26.35
2022-08-25T11:47:50.506Z,26.47
2022-08-25T11:50:35.657Z,26.72
2022-08-25T11:53:30.430Z,26.88
2022-08-25T11:56:05.858Z,27.01
2022-08-25T11:58:52.695Z,27.13
2022-08-25T12:01:43.264Z,27.22
2022-08-25T12:04:44.284Z,27.20
2022-08-25T12:07:22.985Z,27.20
2022-08-25T12:09:55.264Z,27.19
2022-08-25T12:12:32.058Z,27.20
2022-08-25T12:15:32.701Z,27.15
2022-08-25T12:18:28.174Z,27.17
2022-08-25T12:20:57.185Z,27.25
2022-08-25T12:23:29.040Z,27.33
2022-08-25T12:26:05.257Z,27.44
2022-08-25T12:28:54.626Z,27.52
2022-08-25T12:31:51.605Z,27.68
2022-08-25T12:34:46.696Z,27.77
2022-08-25T12:37:19.046Z,27.84
2022-08-25T12:39:51.248Z,27.88
2022-08-25T12:42:46.255Z,27.94
2022-08-25T12:45:21.423Z,28.03
2022-08-25T12:47:52.454Z,28.12
2022-08-25T12:50:39.940Z,28.23
2022-08-25T12:53:12.167Z,28.32
2022-08-25T12:55:48.471Z,28.42
2022-08-25T12:58:18.610Z,28.52
2022-08-25T13:01:27.569Z,28.62
2022-08-25T13:04:13.939Z,28.75
2022-08-25T13:06:59.392Z,28.86
2022-08-25T13:10:07.224Z,28.94
2022-08-25T13:13:01.762Z,29.01
2022-08-25T13:15:48.964Z,29.12
2022-08-25T13:18:33.238Z,29.20
2022-08-25T13:21:15.449Z,29.29
2022-08-25T13:23:48.174Z,29.31
2022-08-25T13:26:48.219Z,29.36
2022-08-25T13:29:23.593Z,29.50
2022-08-25T13:32:14.512Z,29.60
2022-08-25T13:35:17.613Z,29.64
2022-08-25T13:37:50.393Z,29.63
2022-08-25T13:40:29.704Z,29.58
2022-08-25T13:43:02.811Z,29.56
2022-08-25T13:45:41.595Z,29.58
2022-08-25T13:48:21.230Z,29.70
2022-08-25T13:50:52.739Z,29.90
2022-08-25T13:53:24.764Z,30.06
2022-08-25T13:56:02.435Z,30.25
2022-08-25T13:58:44.302Z,30.44
2022-08-25T14:01:48.703Z,30.59
2022-08-25T14:04:34.367Z,30.67
2022-08-25T14:07:25.084Z,30.82
2022-08-25T14:10:11.421Z,30.99
2022-08-25T14:12:45.915Z,31.11
2022-08-25T14:15:27.755Z,31.16
2022-08-25T14:18:05.065Z,31.15
2022-08-25T14:20:36.042Z,31.20
2022-08-25T14:23:10.932Z,31.32
2022-08-25T14:25:40.533Z,31.46
2022-08-25T14:28:18.080Z,31.60
2022-08-25T14:31:06.075Z,31.75
2022-08-25T14:33:40.348Z,31.84
2022-08-25T14:36:09.505Z,31.94
2022-08-25T14:38:41.216Z,31.96
2022-08-25T14:41:12.975Z,32.00
2022-08-25T14:43:44.259Z,32.03
2022-08-25T14:46:30.063Z,32.04
2022-08-25T14:49:01.805Z,32.11
2022-08-25T14:51:36.638Z,32.11
2022-08-25T14:54:15.385Z,32.10
2022-08-25T14:56:49.920Z,32.05
2022-08-25T14:59:21.721Z,32.00
2022-08-25T15:01:55.969Z,31.93
2022-08-25T15:07:31.366Z,31.63
2022-08-25T15:10:07.502Z,31.48
2022-08-25T15:12:47.681Z,31.35
2022-08-25T15:15:28.570Z,31.30
2022-08-25T15:18:05.735Z,31.20
2022-08-25T15:20:44.014Z,31.14
2022-08-25T15:23:18.922Z,31.06
2022-08-25T15:25:53.561Z,31.01
2022-08-25T15:31:10.478Z,31.00
2022-08-25T15:33:45.078Z,30.96
2022-08-25T15:39:06.154Z,30.83
2022-08-25T15:41:58.725Z,30.75
2022-08-25T15:44:42.067Z,30.67
2022-08-25T15:47:24.485Z,30.59
2022-08-25T15:50:17.382Z,30.49
2022-08-25T15:52:47.518Z,30.46
2022-08-25T15:55:17.966Z,30.40
2022-08-25T15:57:49.700Z,30.30
2022-08-25T16:00:18.878Z,30.18
2022-08-25T16:02:47.633Z,30.14
2022-08-25T16:05:16.331Z,30.07
2022-08-25T16:07:51.505Z,29.97
2022-08-25T16:10:21.882Z,29.90
2022-08-25T16:13:05.377Z,29.87
2022-08-25T16:15:35.927Z,29.77
2022-08-25T16:18:06.364Z,29.72
2022-08-25T16:20:37.111Z,29.65
2022-08-25T16:23:06.078Z,29.59
2022-08-25T16:25:40.575Z,29.55
2022-08-25T16:28:14.117Z,29.42
2022-08-25T16:30:52.592Z,29.32
2022-08-25T16:33:22.385Z,29.25
2022-08-25T16:35:51.035Z,29.21
2022-08-25T16:38:19.982Z,29.16
2022-08-25T16:40:48.946Z,29.13
2022-08-25T16:43:21.380Z,29.07
2022-08-25T16:45:59.129Z,29.02
2022-08-25T16:48:34.267Z,28.91
2022-08-25T16:51:22.598Z,28.82
2022-08-25T16:54:21.902Z,28.72
2022-08-25T16:56:53.715Z,28.56
2022-08-25T16:59:25.033Z,28.44
2022-08-25T17:01:54.796Z,28.30
2022-08-25T17:04:37.487Z,28.14
2022-08-25T17:07:08.159Z,27.99
2022-08-25T17:09:37.510Z,27.86
2022-08-25T17:12:06.536Z,27.74
2022-08-25T17:14:35.953Z,27.61
2022-08-25T17:17:07.004Z,27.53
2022-08-25T17:19:43.135Z,27.44
2022-08-25T17:22:17.508Z,27.33
2022-08-25T17:24:47.332Z,27.26
2022-08-25T17:27:30.896Z,27.15
2022-08-25T17:30:00.057Z,27.03
2022-08-25T17:32:30.441Z,26.94
2022-08-25T17:35:00.138Z,26.84
2022-08-25T17:37:28.975Z,26.74
2022-08-25T17:40:03.276Z,26.63
2022-08-25T17:42:34.467Z,26.54
2022-08-25T17:45:05.953Z,26.44
2022-08-25T17:47:37.108Z,26.35
2022-08-25T17:50:06.913Z,26.26
2022-08-25T17:52:36.341Z,26.17
2022-08-25T17:55:08.701Z,26.10
2022-08-25T17:57:40.808Z,26.00
2022-08-25T18:00:12.673Z,25.89
2022-08-25T18:02:43.988Z,25.79
2022-08-25T18:05:29.576Z,25.69
2022-08-25T18:08:15.056Z,25.61
2022-08-25T18:10:58.807Z,25.56
2022-08-25T18:13:45.747Z,25.49
2022-08-25T18:16:29.491Z,25.42
2022-08-25T18:18:59.505Z,25.33
2022-08-25T18:21:31.172Z,25.26
2022-08-25T18:24:02.886Z,25.20
2022-08-25T18:26:35.835Z,25.13
2022-08-25T18:29:05.947Z,25.07
2022-08-25T18:31:36.417Z,25.00
2022-08-25T18:34:14.165Z,24.94
2022-08-25T18:36:46.022Z,24.89
2022-08-25T18:39:35.782Z,24.85
2022-08-25T18:42:07.086Z,24.80
2022-08-25T18:44:54.288Z,24.74
2022-08-25T18:47:24.759Z,24.69
2022-08-25T18:49:55.450Z,24.65
2022-08-25T18:52:25.134Z,24.58
2022-08-25T18:54:55.598Z,24.54
2022-08-25T18:57:25.055Z,24.52
2022-08-25T18:59:55.097Z,24.47
2022-08-25T19:02:25.376Z,24.45
2022-08-25T19:04:56.092Z,24.41
2022-08-25T19:07:40.329Z,24.37
2022-08-25T19:10:09.927Z,24.33
2022-08-25T19:12:54.682Z,24.29
2022-08-25T19:15:27.843Z,24.26
2022-08-25T19:17:59.566Z,24.24
2022-08-25T19:20:32.517Z,24.21
2022-08-25T19:23:15.990Z,24.15
2022-08-25T19:25:45.902Z,24.11
2022-08-25T19:28:17.627Z,24.08
2022-08-25T19:30:50.638Z,24.02
2022-08-25T19:33:43.955Z,23.99
2022-08-25T19:36:16.076Z,23.94
2022-08-25T19:38:45.257Z,23.91
2022-08-25T19:41:15.231Z,23.86
2022-08-25T19:43:57.577Z,23.82
2022-08-25T19:46:35.811Z,23.78
2022-08-25T19:49:16.326Z,23.75
2022-08-25T19:51:51.395Z,23.72
2022-08-25T19:54:25.952Z,23.70
2022-08-25T19:57:11.133Z,23.68
2022-08-25T19:59:44.588Z,23.67
2022-08-25T20:02:19.171Z,23.67
2022-08-25T20:04:50.653Z,23.65
2022-08-25T20:07:24.132Z,23.64
2022-08-25T20:09:55.728Z,23.62
2022-08-25T20:12:26.466Z,23.60
2022-08-25T20:14:57.119Z,23.57
2022-08-25T20:17:28.608Z,23.54
2022-08-25T20:20:04.861Z,23.49
2022-08-25T20:22:34.905Z,23.44
2022-08-25T20:25:27.785Z,23.39
2022-08-25T20:28:06.476Z,23.35
2022-08-25T20:30:45.557Z,23.31
2022-08-25T20:33:14.195Z,23.26
2022-08-25T20:35:53.224Z,23.23
2022-08-25T20:38:23.589Z,23.20
2022-08-25T20:40:52.290Z,23.17
2022-08-25T20:43:35.215Z,23.14
2022-08-25T20:46:07.727Z,23.13
2022-08-25T20:48:38.586Z,23.12
2022-08-25T20:51:09.253Z,23.14
2022-08-25T20:53:52.475Z,23.13
2022-08-25T20:56:21.236Z,23.12
2022-08-25T20:58:50.648Z,23.13
2022-08-25T21:01:23.421Z,23.14
2022-08-25T21:04:08.261Z,23.12
2022-08-25T21:06:39.516Z,23.12
2022-08-25T21:09:15.775Z,23.12
2022-08-25T21:11:59.458Z,23.11
2022-08-25T21:14:29.776Z,23.09
2022-08-25T21:16:59.091Z,23.09
2022-08-25T21:19:30.085Z,23.08
2022-08-25T21:22:01.168Z,23.04
2022-08-25T21:24:30.624Z,23.01
2022-08-25T21:27:01.299Z,23.00
2022-08-25T21:29:32.278Z,23.00
2022-08-25T21:32:01.663Z,22.99
2022-08-25T21:34:44.120Z,22.94
2022-08-25T21:37:28.181Z,22.92
2022-08-25T21:39:58.286Z,22.88
2022-08-25T21:42:27.699Z,22.86
2022-08-25T21:44:57.953Z,22.82
2022-08-25T21:47:27.153Z,22.80
2022-08-25T21:49:56.943Z,22.80
2022-08-25T21:52:25.814Z,22.79
2022-08-25T21:54:54.853Z,22.79
2022-08-25T21:57:25.889Z,22.78
2022-08-25T21:59:57.964Z,22.78
2022-08-25T22:02:28.011Z,22.76
2022-08-25T22:05:11.739Z,22.72
2022-08-25T22:07:44.241Z,22.69
2022-08-25T22:10:28.250Z,22.64
2022-08-25T22:12:57.875Z,22.60
2022-08-25T22:15:27.624Z,22.57
2022-08-25T22:17:56.688Z,22.55
2022-08-25T22:20:26.395Z,22.53
2022-08-25T22:23:03.448Z,22.50
2022-08-25T22:25:46.984Z,22.46
2022-08-25T22:28:17.755Z,22.42
2022-08-25T22:30:46.952Z,22.39
2022-08-25T22:33:31.742Z,22.36
2022-08-25T22:36:17.150Z,22.32
2022-08-25T22:38:49.567Z,22.28
2022-08-25T22:41:21.731Z,22.25
2022-08-25T22:43:52.959Z,22.23
2022-08-25T22:46:24.157Z,22.19
2022-08-25T22:48:55.343Z,22.15
2022-08-25T22:51:28.450Z,22.10
2022-08-25T22:54:00.296Z,22.06
2022-08-25T22:56:36.060Z,22.03
2022-08-25T22:59:09.266Z,22.00
2022-08-25T23:01:54.945Z,21.94
2022-08-25T23:04:41.229Z,21.92
2022-08-25T23:07:13.134Z,21.88
2022-08-25T23:09:57.714Z,21.82
2022-08-25T23:12:28.262Z,21.76
2022-08-25T23:14:57.714Z,21.71
2022-08-25T23:17:29.862Z,21.68
2022-08-25T23:19:59.433Z,21.63
2022-08-25T23:22:29.415Z,21.59
2022-08-25T23:24:59.528Z,21.55
2022-08-25T23:27:28.760Z,21.51
2022-08-25T23:29:58.213Z,21.49
2022-08-25T23:32:28.231Z,21.46
2022-08-25T23:34:57.563Z,21.42
2022-08-25T23:37:27.386Z,21.40
2022-08-25T23:39:58.637Z,21.37
2022-08-25T23:45:11.350Z,21.23
2022-08-25T23:47:54.366Z,21.17
2022-08-25T23:50:23.949Z,21.16
2022-08-25T23:52:54.564Z,21.15
2022-08-25T23:55:24.235Z,21.13
2022-08-25T23:57:53.664Z,21.15
